Time;durP1;ratioP1;P1;durP2;ratioP2;P2;SDS_P1;SDS_P2;PMS_P1;PMS_P2;Temp;Humidity;BMP_temperature;BMP_pressure;BME280_temperature;BME280_humidity;BME280_pressure;Samples;Min_cycle;Max_cycle;Signal;HPM_P1;HPM_P2
2022/09/05 00:02:32;;;;;;;3.80;3.40;;;18.20;59.80;;;;;;5057855;28;20432;-59
2022/09/05 00:05:12;;;;;;;4.73;3.43;;;18.20;60.00;;;;;;5057665;28;20436;-60
2022/09/05 00:07:47;;;;;;;2.90;2.70;;;18.10;60.00;;;;;;5057456;28;20519;-59
2022/09/05 00:10:24;;;;;;;3.10;2.73;;;18.10;60.10;;;;;;5058136;28;20429;-60
2022/09/05 00:12:53;;;;;;;3.97;2.93;;;18.10;60.20;;;;;;5057273;28;20462;-59
2022/09/05 00:15:32;;;;;;;4.13;2.90;;;18.00;60.30;;;;;;5057680;28;20528;-58
2022/09/05 00:18:34;;;;;;;3.17;2.83;;;18.00;60.50;;;;;;5057425;28;20503;-58
2022/09/05 00:21:12;;;;;;;2.93;2.73;;;18.00;60.60;;;;;;5057712;28;20431;-58
2022/09/05 00:23:57;;;;;;;4.10;3.07;;;18.00;60.80;;;;;;5057833;28;20527;-58
2022/09/05 00:26:39;;;;;;;3.07;2.77;;;18.00;60.90;;;;;;5061517;28;20491;-58
2022/09/05 00:29:19;;;;;;;3.23;2.70;;;17.90;61.00;;;;;;5062064;28;20797;-60
2022/09/05 00:31:57;;;;;;;3.30;3.00;;;17.90;61.10;;;;;;5062125;28;20884;-59
2022/09/05 00:34:38;;;;;;;3.30;2.90;;;17.90;61.30;;;;;;5061309;28;20567;-58
2022/09/05 00:37:09;;;;;;;2.90;2.50;;;17.80;61.30;;;;;;5061101;28;20471;-59
2022/09/05 00:39:38;;;;;;;3.77;2.70;;;17.80;61.50;;;;;;5059299;28;20448;-59
2022/09/05 00:42:09;;;;;;;4.93;3.00;;;17.80;61.70;;;;;;5061043;28;20522;-59
2022/09/05 00:44:46;;;;;;;4.73;2.93;;;17.80;61.80;;;;;;5062346;28;20504;-58
2022/09/05 00:47:27;;;;;;;3.40;3.10;;;17.70;61.80;;;;;;5061372;28;20471;-59
2022/09/05 00:50:01;;;;;;;2.97;2.77;;;17.70;61.90;;;;;;5060778;28;20432;-58
2022/09/05 00:52:37;;;;;;;2.77;2.57;;;17.70;62.10;;;;;;5061077;28;20529;-58
2022/09/05 00:55:18;;;;;;;3.30;3.00;;;17.70;62.20;;;;;;5061899;28;20537;-58
2022/09/05 00:58:15;;;;;;;3.50;3.20;;;17.70;62.40;;;;;;5061331;28;20424;-59
2022/09/05 01:00:52;;;;;;;3.53;3.23;;;17.60;62.40;;;;;;5060907;28;20467;-59
2022/09/05 01:03:52;;;;;;;3.37;3.07;;;17.60;62.70;;;;;;5058151;28;20431;-58
2022/09/05 01:06:33;;;;;;;4.37;3.00;;;17.50;62.80;;;;;;5058723;28;21035;-59
2022/09/05 01:09:16;;;;;;;3.23;2.60;;;17.50;63.10;;;;;;5058181;28;20920;-59
2022/09/05 01:11:52;;;;;;;3.00;2.70;;;17.50;63.10;;;;;;5057890;28;20523;-59
2022/09/05 01:14:46;;;;;;;3.70;2.97;;;17.50;63.30;;;;;;5058806;28;20468;-58
2022/09/05 01:17:38;;;;;;;3.30;3.00;;;17.40;63.30;;;;;;5062778;28;20468;-59
2022/09/05 01:20:26;;;;;;;4.57;3.30;;;17.40;63.50;;;;;;5062147;28;20515;-59
2022/09/05 01:23:28;;;;;;;3.80;2.80;;;17.40;63.80;;;;;;5060929;28;20432;-59
2022/09/05 01:26:16;;;;;;;3.60;3.30;;;17.40;63.90;;;;;;5060967;28;20468;-60
2022/09/05 01:28:52;;;;;;;3.17;2.90;;;17.30;64.10;;;;;;5060747;28;20519;-58
2022/09/05 01:31:33;;;;;;;5.30;2.80;;;17.30;64.30;;;;;;5060750;28;20515;-59
2022/09/05 01:34:08;;;;;;;4.27;3.67;;;17.30;64.50;;;;;;5060569;28;20479;-59
2022/09/05 01:36:54;;;;;;;4.20;2.97;;;17.30;64.60;;;;;;5060039;28;20571;-59
2022/09/05 01:39:32;;;;;;;4.13;2.93;;;17.20;64.70;;;;;;5060041;28;20425;-58
2022/09/05 01:42:08;;;;;;;3.33;2.90;;;17.20;65.00;;;;;;5060211;28;20534;-58
2022/09/05 01:44:55;;;;;;;3.40;2.87;;;17.20;65.20;;;;;;5060673;28;20510;-59
2022/09/05 01:47:38;;;;;;;5.10;3.07;;;17.20;65.50;;;;;;5078828;22;20574;-55
2022/09/05 01:50:16;;;;;;;3.93;3.13;;;17.10;65.60;;;;;;5055549;28;20463;-55
2022/09/05 01:53:02;;;;;;;3.97;3.07;;;17.10;65.90;;;;;;5055562;28;20505;-55
2022/09/05 01:55:46;;;;;;;4.53;3.67;;;17.10;66.10;;;;;;5055097;28;21062;-55
2022/09/05 01:58:20;;;;;;;3.53;2.70;;;17.00;66.20;;;;;;5055392;28;20468;-57
2022/09/05 02:00:56;;;;;;;3.23;2.93;;;17.00;66.40;;;;;;5055299;28;20440;-55
2022/09/05 02:03:34;;;;;;;3.63;3.33;;;17.00;66.70;;;;;;5055624;28;20428;-54
2022/09/05 02:06:26;;;;;;;4.30;2.83;;;17.00;66.90;;;;;;5055815;28;20558;-55
2022/09/05 02:09:10;;;;;;;4.17;3.10;;;17.00;67.10;;;;;;5055574;28;20434;-56
2022/09/05 02:11:49;;;;;;;3.47;2.97;;;16.90;67.40;;;;;;5055554;28;20446;-56
2022/09/05 02:14:28;;;;;;;2.70;2.50;;;16.90;67.60;;;;;;5055232;28;20428;-57
2022/09/05 02:17:11;;;;;;;3.63;3.30;;;16.80;67.70;;;;;;5055641;28;20498;-57
2022/09/05 02:19:46;;;;;;;3.87;3.13;;;16.80;68.00;;;;;;5055537;28;20452;-56
2022/09/05 02:22:20;;;;;;;2.90;2.70;;;16.80;68.20;;;;;;5055563;28;20419;-53
2022/09/05 02:24:53;;;;;;;3.90;3.20;;;16.80;68.40;;;;;;5055323;28;20863;-57
2022/09/05 02:27:29;;;;;;;3.00;2.80;;;16.70;68.60;;;;;;5055177;28;20517;-56
2022/09/05 02:30:07;;;;;;;4.47;3.20;;;16.70;68.80;;;;;;5055163;28;20404;-56
2022/09/05 02:32:55;;;;;;;3.90;3.27;;;16.70;69.00;;;;;;5055333;28;20436;-56
2022/09/05 02:35:30;;;;;;;3.30;3.00;;;16.70;69.30;;;;;;5054740;28;20464;-56
2022/09/05 02:38:04;;;;;;;3.60;3.30;;;16.70;69.70;;;;;;5054810;28;20467;-56
2022/09/05 02:40:39;;;;;;;3.20;2.90;;;16.60;69.90;;;;;;5054525;28;20440;-56
2022/09/05 02:43:19;;;;;;;3.37;3.07;;;16.60;70.20;;;;;;5055901;28;20467;-56
2022/09/05 02:45:57;;;;;;;3.73;3.43;;;16.60;70.50;;;;;;5054810;28;20451;-56
2022/09/05 02:48:32;;;;;;;3.50;3.20;;;16.50;70.60;;;;;;5053456;28;20480;-57
2022/09/05 02:51:12;;;;;;;3.47;3.17;;;16.60;71.00;;;;;;5054639;28;20434;-57
2022/09/05 02:53:43;;;;;;;4.67;3.40;;;16.50;71.20;;;;;;5054247;28;20518;-56
2022/09/05 02:56:27;;;;;;;5.97;3.17;;;16.50;71.40;;;;;;5054211;28;20486;-56
2022/09/05 02:59:03;;;;;;;5.60;2.90;;;16.50;71.60;;;;;;5054126;28;20519;-57
2022/09/05 03:01:55;;;;;;;3.70;3.00;;;16.50;71.80;;;;;;5054017;28;20439;-56
2022/09/05 03:04:31;;;;;;;3.60;3.30;;;16.50;72.00;;;;;;5053924;28;20554;-56
2022/09/05 03:07:33;;;;;;;3.63;3.30;;;16.50;72.30;;;;;;5053939;28;20975;-57
2022/09/05 03:10:25;;;;;;;5.47;3.17;;;16.50;72.40;;;;;;5054098;28;20519;-57
2022/09/05 03:13:30;;;;;;;3.50;3.20;;;16.50;72.70;;;;;;5037250;28;20542;-57
2022/09/05 03:16:42;;;;;;;3.80;3.00;;;16.40;72.80;;;;;;5036225;28;20579;-56
2022/09/05 03:19:50;;;;;;;3.53;3.23;;;16.40;73.00;;;;;;5056151;28;20451;-56
2022/09/05 03:22:53;;;;;;;3.80;3.50;;;16.40;73.10;;;;;;5010168;28;20511;-56
2022/09/05 03:25:59;;;;;;;3.40;3.10;;;16.40;73.40;;;;;;5062266;28;20462;-55
2022/09/05 03:29:02;;;;;;;4.00;3.70;;;16.40;73.70;;;;;;5056049;28;21063;-56
2022/09/05 03:31:55;;;;;;;4.40;3.40;;;16.40;73.90;;;;;;5054119;28;20432;-54
2022/09/05 03:35:09;;;;;;;4.23;3.33;;;16.40;74.20;;;;;;5054085;28;20904;-56
2022/09/05 03:38:12;;;;;;;6.10;3.50;;;16.30;74.30;;;;;;5053629;28;20550;-56
2022/09/05 03:41:20;;;;;;;5.27;3.80;;;16.30;74.60;;;;;;5053381;28;20434;-56
2022/09/05 03:44:11;;;;;;;4.13;3.60;;;16.30;74.80;;;;;;5053603;28;20428;-56
2022/09/05 03:47:08;;;;;;;3.97;3.50;;;16.30;75.10;;;;;;5053280;28;20876;-56
2022/09/05 03:50:05;;;;;;;3.17;2.87;;;16.30;75.30;;;;;;5027828;28;20487;-56
2022/09/05 03:52:48;;;;;;;3.63;3.33;;;16.30;75.60;;;;;;5048082;28;20448;-56
2022/09/05 03:55:51;;;;;;;3.90;3.50;;;16.30;75.90;;;;;;5053965;28;20475;-56
2022/09/05 03:58:57;;;;;;;4.50;3.80;;;16.30;76.10;;;;;;5053275;28;20474;-56
2022/09/05 04:01:34;;;;;;;5.43;3.50;;;16.30;76.30;;;;;;5052456;28;20892;-56
2022/09/05 04:04:06;;;;;;;4.20;3.60;;;16.30;76.40;;;;;;5053131;28;20468;-56
2022/09/05 04:06:37;;;;;;;4.33;3.70;;;16.30;76.40;;;;;;5053224;28;20473;-56
2022/09/05 04:10:26;;;;;;;7.10;4.07;;;16.40;76.30;;;;;;5111646;27;20544;-57
2022/09/05 04:12:59;;;;;;;4.83;3.60;;;16.40;76.70;;;;;;5111057;28;20864;-56
2022/09/05 04:15:34;;;;;;;3.80;3.50;;;16.40;76.80;;;;;;5113560;28;20516;-56
2022/09/05 04:18:05;;;;;;;5.30;3.83;;;16.40;76.80;;;;;;5111560;28;20910;-56
2022/09/05 04:20:39;;;;;;;5.73;4.17;;;16.40;77.10;;;;;;5110645;28;20429;-56
2022/09/05 04:23:23;;;;;;;4.50;3.70;;;16.40;77.10;;;;;;5110506;28;20516;-57
2022/09/05 04:26:03;;;;;;;4.13;3.30;;;16.40;77.30;;;;;;5110948;28;20839;-56
2022/09/05 04:28:45;;;;;;;4.60;3.53;;;16.40;77.40;;;;;;5110723;28;20458;-56
2022/09/05 04:31:23;;;;;;;4.60;3.90;;;16.40;77.40;;;;;;5110669;28;20792;-56
2022/09/05 04:34:09;;;;;;;4.20;3.80;;;16.50;77.60;;;;;;5110239;28;20913;-56
2022/09/05 04:36:38;;;;;;;5.93;4.03;;;16.50;77.60;;;;;;5110838;28;20878;-57
2022/09/05 04:39:22;;;;;;;3.60;3.30;;;16.50;77.80;;;;;;5110181;28;20448;-57
2022/09/05 04:41:56;;;;;;;4.37;3.97;;;16.50;77.80;;;;;;5110442;28;20426;-56
2022/09/05 04:44:28;;;;;;;4.50;3.40;;;16.50;77.90;;;;;;5110084;28;20905;-56
2022/09/05 04:46:57;;;;;;;4.20;3.80;;;16.50;77.90;;;;;;5110101;28;20469;-56
2022/09/05 04:49:27;;;;;;;4.63;4.03;;;16.50;77.90;;;;;;5110287;28;20517;-57
2022/09/05 04:52:18;;;;;;;5.40;4.10;;;16.50;78.00;;;;;;5110120;28;20432;-56
2022/09/05 04:54:49;;;;;;;4.00;3.70;;;16.50;78.10;;;;;;5109759;28;20545;-56
2022/09/05 04:57:25;;;;;;;6.13;4.23;;;16.60;78.40;;;;;;5110082;28;20560;-56
2022/09/05 05:00:00;;;;;;;4.70;3.80;;;16.60;78.40;;;;;;5110347;28;20848;-56
2022/09/05 05:02:36;;;;;;;4.27;3.87;;;16.60;78.50;;;;;;5110237;28;20492;-56
2022/09/05 05:05:07;;;;;;;5.13;4.03;;;16.60;78.60;;;;;;5110533;28;20432;-56
2022/09/05 05:07:49;;;;;;;4.40;4.00;;;16.60;78.70;;;;;;5110225;28;20461;-55
2022/09/05 05:10:25;;;;;;;4.43;4.03;;;16.60;78.70;;;;;;5109967;28;20544;-56
2022/09/05 05:13:01;;;;;;;4.47;4.07;;;16.70;78.80;;;;;;5110031;28;20425;-56
2022/09/05 05:15:30;;;;;;;3.80;3.50;;;16.70;78.90;;;;;;5109605;28;20988;-56
2022/09/05 05:18:05;;;;;;;5.70;3.83;;;16.70;79.70;;;;;;5105369;28;20480;-57
2022/09/05 05:20:38;;;;;;;4.60;4.20;;;16.70;79.10;;;;;;5082742;28;20542;-55
2022/09/05 05:23:09;;;;;;;5.13;4.40;;;16.70;79.30;;;;;;5081525;28;20492;-57
2022/09/05 05:25:47;;;;;;;4.30;3.90;;;16.70;79.40;;;;;;5084779;28;20450;-57
2022/09/05 05:28:22;;;;;;;4.90;4.37;;;16.70;79.40;;;;;;5088793;28;20543;-56
2022/09/05 05:30:49;;;;;;;8.40;4.37;;;16.80;79.50;;;;;;5083362;28;20491;-57
2022/09/05 05:33:26;;;;;;;5.63;4.30;;;16.80;79.40;;;;;;5090301;28;20546;-55
2022/09/05 05:35:55;;;;;;;6.27;4.17;;;16.90;79.40;;;;;;5087722;28;20518;-56
2022/09/05 05:38:31;;;;;;;4.20;3.80;;;17.00;79.20;;;;;;5079636;28;20467;-56
2022/09/05 05:41:05;;;;;;;6.07;4.83;;;17.00;79.00;;;;;;5076578;28;20855;-56
2022/09/05 05:43:39;;;;;;;5.37;4.97;;;17.10;78.70;;;;;;5078577;28;20431;-55
2022/09/05 05:46:08;;;;;;;7.13;5.10;;;17.30;78.50;;;;;;5095745;28;20584;-56
2022/09/05 05:48:38;;;;;;;5.80;5.30;;;17.40;78.00;;;;;;5094290;28;20485;-56
2022/09/05 05:51:32;;;;;;;5.60;4.37;;;17.50;77.50;;;;;;5090813;28;20446;-55
2022/09/05 05:54:05;;;;;;;5.00;4.30;;;17.70;77.70;;;;;;5096222;28;20438;-56
2022/09/05 05:56:46;;;;;;;6.63;4.40;;;17.80;76.70;;;;;;5096186;28;20480;-55
2022/09/05 05:59:32;;;;;;;7.47;5.23;;;17.80;76.20;;;;;;5096704;28;20806;-55
2022/09/05 06:02:48;;;;;;;4.90;4.40;;;18.00;76.10;;;;;;5094332;28;20453;-56
2022/09/05 06:05:36;;;;;;;4.70;4.30;;;18.00;75.80;;;;;;5095935;28;20937;-57
2022/09/05 06:08:21;;;;;;;7.70;4.90;;;18.00;75.60;;;;;;5064395;28;20491;-55
2022/09/05 06:11:06;;;;;;;5.73;4.70;;;18.10;75.60;;;;;;5076189;28;20450;-56
2022/09/05 06:14:03;;;;;;;9.57;4.83;;;18.10;75.40;;;;;;5080700;28;20865;-56
2022/09/05 06:17:17;;;;;;;4.87;4.37;;;18.10;75.50;;;;;;5058629;28;20470;-56
2022/09/05 06:20:16;;;;;;;4.90;4.33;;;18.20;75.40;;;;;;5075213;28;20610;-57
2022/09/05 06:23:12;;;;;;;5.30;4.43;;;18.30;75.20;;;;;;5078440;28;20542;-56
2022/09/05 06:26:07;;;;;;;5.50;5.00;;;18.40;75.20;;;;;;5066293;28;20509;-55
2022/09/05 06:28:48;;;;;;;5.90;5.10;;;18.40;75.10;;;;;;5078864;28;20443;-56
2022/09/05 06:31:41;;;;;;;5.93;4.90;;;18.40;74.90;;;;;;5078093;28;20506;-54
2022/09/05 06:34:39;;;;;;;5.50;4.73;;;18.40;75.00;;;;;;5091183;28;20485;-57
2022/09/05 06:37:20;;;;;;;5.40;4.87;;;18.40;75.00;;;;;;5095535;28;20545;-57
2022/09/05 06:40:05;;;;;;;5.53;4.97;;;18.50;74.90;;;;;;5094863;28;20429;-56
2022/09/05 06:42:42;;;;;;;7.43;5.80;;;18.60;74.80;;;;;;5086435;28;20423;-55
2022/09/05 06:45:26;;;;;;;7.43;4.70;;;18.70;74.50;;;;;;5075335;28;20431;-56
2022/09/05 06:48:01;;;;;;;5.47;4.97;;;18.90;74.20;;;;;;5074853;28;20534;-57
2022/09/05 06:50:51;;;;;;;7.37;5.53;;;19.10;73.60;;;;;;5075937;28;20526;-57
2022/09/05 06:53:53;;;;;;;6.30;5.50;;;19.30;72.90;;;;;;5075452;28;20513;-57
2022/09/05 06:56:41;;;;;;;5.80;5.30;;;19.60;72.20;;;;;;5074694;28;20521;-57
2022/09/05 06:59:57;;;;;;;7.13;5.20;;;19.90;71.20;;;;;;5074951;28;20895;-57
2022/09/05 07:02:33;;;;;;;8.90;5.27;;;20.20;70.00;;;;;;5074573;28;20475;-57
2022/09/05 07:05:11;;;;;;;5.30;4.80;;;20.40;68.80;;;;;;5075048;28;20431;-57
2022/09/05 07:07:44;;;;;;;5.53;5.03;;;20.60;68.10;;;;;;5075727;28;20498;-56
2022/09/05 07:10:21;;;;;;;6.20;5.10;;;20.70;68.00;;;;;;5078912;28;20635;-54
2022/09/05 07:12:52;;;;;;;6.20;4.67;;;20.90;66.80;;;;;;5081002;28;20427;-56
2022/09/05 07:15:33;;;;;;;7.33;5.40;;;21.00;66.20;;;;;;5083991;28;20808;-56
2022/09/05 07:18:07;;;;;;;6.83;6.13;;;21.10;65.90;;;;;;5084783;28;20502;-56
2022/09/05 07:20:42;;;;;;;5.13;4.73;;;21.20;65.60;;;;;;5081653;28;20514;-55
2022/09/05 07:23:19;;;;;;;5.30;4.60;;;21.40;64.90;;;;;;5075333;28;20512;-55
2022/09/05 07:25:53;;;;;;;7.67;5.67;;;21.40;64.40;;;;;;5073781;28;20437;-55
2022/09/05 07:28:20;;;;;;;5.37;4.87;;;21.50;64.00;;;;;;5073297;28;20464;-56
2022/09/05 07:30:52;;;;;;;6.13;4.70;;;21.60;63.60;;;;;;5073096;28;20570;-55
2022/09/05 07:33:21;;;;;;;5.50;5.10;;;21.70;63.20;;;;;;5073582;28;20466;-55
2022/09/05 07:35:51;;;;;;;6.70;5.90;;;21.80;63.00;;;;;;5073511;28;20450;-56
2022/09/05 07:38:21;;;;;;;6.20;5.70;;;21.90;62.70;;;;;;5073219;28;20488;-56
2022/09/05 07:40:56;;;;;;;7.13;5.27;;;22.00;62.30;;;;;;5073080;28;20920;-56
2022/09/05 07:43:29;;;;;;;6.67;4.83;;;22.00;61.80;;;;;;5073544;28;20434;-56
2022/09/05 07:46:10;;;;;;;5.57;5.00;;;22.20;61.40;;;;;;5073084;28;20437;-56
2022/09/05 07:48:41;;;;;;;5.97;5.37;;;22.40;60.90;;;;;;5073270;28;20453;-56
2022/09/05 07:51:17;;;;;;;6.17;5.10;;;22.60;60.30;;;;;;5073171;28;20463;-55
2022/09/05 07:53:46;;;;;;;6.17;4.80;;;22.60;60.00;;;;;;5073014;28;20432;-55
2022/09/05 07:56:35;;;;;;;5.47;4.83;;;22.60;59.80;;;;;;5072859;28;20930;-55
2022/09/05 07:59:07;;;;;;;5.03;4.20;;;22.60;59.70;;;;;;5072837;28;20965;-55
2022/09/05 08:01:37;;;;;;;7.73;6.20;;;22.60;59.60;;;;;;5073245;28;20438;-55
2022/09/05 08:04:06;;;;;;;5.57;5.07;;;22.60;59.60;;;;;;5074326;28;20439;-55
2022/09/05 08:06:35;;;;;;;6.00;5.37;;;22.70;59.50;;;;;;5075348;28;20521;-55
2022/09/05 08:09:09;;;;;;;7.00;6.20;;;22.80;59.20;;;;;;5074878;28;20463;-55
2022/09/05 08:11:41;;;;;;;8.77;5.03;;;22.80;59.00;;;;;;5078144;22;20528;-60
2022/09/05 08:14:15;;;;;;;5.93;5.30;;;22.90;58.80;;;;;;5055409;28;20444;-59
2022/09/05 08:16:44;;;;;;;7.63;5.90;;;23.10;58.70;;;;;;5055289;28;20439;-61
2022/09/05 08:19:54;;;;;;;6.30;5.10;;;23.10;58.50;;;;;;5054511;28;20437;-61
2022/09/05 08:22:25;;;;;;;5.50;5.00;;;23.20;58.40;;;;;;5055264;28;20472;-61
2022/09/05 08:25:01;;;;;;;6.27;5.67;;;23.30;58.20;;;;;;5054809;28;20802;-59
2022/09/05 08:27:42;;;;;;;5.53;4.90;;;23.40;57.80;;;;;;5054820;28;20432;-61
2022/09/05 08:30:11;;;;;;;5.90;5.30;;;23.50;57.60;;;;;;5054460;28;20527;-59
2022/09/05 08:32:45;;;;;;;5.87;5.20;;;23.60;57.30;;;;;;5055500;28;20441;-60
2022/09/05 08:35:20;;;;;;;6.70;5.00;;;23.60;57.10;;;;;;5054884;28;20471;-60
2022/09/05 08:37:49;;;;;;;10.03;5.20;;;23.70;56.80;;;;;;5054789;28;20424;-61
2022/09/05 08:40:28;;;;;;;5.90;5.20;;;23.70;56.60;;;;;;5054572;28;20446;-60
2022/09/05 08:43:03;;;;;;;8.73;5.10;;;23.70;56.50;;;;;;5055069;28;20485;-61
2022/09/05 08:45:40;;;;;;;7.07;5.13;;;23.70;56.50;;;;;;5056076;28;20483;-61
2022/09/05 08:48:21;;;;;;;8.63;5.70;;;23.80;56.40;;;;;;5056029;28;20424;-59
2022/09/05 08:51:09;;;;;;;13.80;5.60;;;23.80;56.40;;;;;;5059746;28;20489;-59
2022/09/05 08:54:01;;;;;;;8.40;5.30;;;23.90;56.30;;;;;;5060346;28;20431;-60
2022/09/05 08:56:38;;;;;;;6.30;5.70;;;24.10;56.10;;;;;;5062300;28;20433;-60
2022/09/05 08:59:25;;;;;;;6.60;5.20;;;24.20;55.80;;;;;;5061802;28;20592;-60
2022/09/05 09:02:30;;;;;;;5.97;5.20;;;24.30;55.60;;;;;;5059684;28;20474;-60
2022/09/05 09:05:08;;;;;;;6.83;5.60;;;24.40;55.30;;;;;;5054518;28;20479;-61
2022/09/05 09:07:42;;;;;;;9.10;5.00;;;24.50;55.00;;;;;;5059150;28;20486;-59
2022/09/05 09:10:34;;;;;;;5.70;5.10;;;24.60;55.00;;;;;;5063113;28;20975;-60
2022/09/05 09:13:23;;;;;;;5.70;5.10;;;24.70;54.80;;;;;;5059199;28;20472;-60
2022/09/05 09:16:05;;;;;;;6.43;5.63;;;24.90;54.60;;;;;;5060989;28;20437;-60
2022/09/05 09:19:00;;;;;;;7.70;5.20;;;24.90;54.30;;;;;;5061824;28;20442;-60
2022/09/05 09:21:37;;;;;;;8.47;5.60;;;25.00;54.20;;;;;;5061849;28;20992;-61
2022/09/05 09:24:18;;;;;;;7.10;6.40;;;25.20;53.90;;;;;;5062407;28;20537;-60
2022/09/05 09:26:55;;;;;;;6.07;5.47;;;25.20;53.60;;;;;;5060350;28;20492;-60
2022/09/05 09:29:27;;;;;;;7.47;5.23;;;25.20;53.40;;;;;;5061983;28;20453;-60
2022/09/05 09:32:08;;;;;;;6.63;5.57;;;25.30;53.20;;;;;;5062240;28;20549;-59
2022/09/05 09:35:02;;;;;;;6.67;5.63;;;25.40;53.20;;;;;;5062270;28;20463;-60
2022/09/05 09:37:52;;;;;;;6.23;5.33;;;25.40;53.00;;;;;;5053629;28;20937;-59
2022/09/05 09:40:51;;;;;;;7.90;5.37;;;25.50;52.90;;;;;;5058060;28;20432;-60
2022/09/05 09:43:26;;;;;;;5.63;4.90;;;25.40;52.90;;;;;;5021316;28;20465;-59
2022/09/05 09:46:16;;;;;;;6.47;5.87;;;25.40;52.90;;;;;;5058064;28;20449;-60
2022/09/05 09:49:03;;;;;;;6.53;5.10;;;25.50;52.70;;;;;;5057256;28;20451;-60
2022/09/05 09:51:56;;;;;;;6.83;5.30;;;25.50;52.50;;;;;;5058395;28;20575;-59
2022/09/05 09:55:11;;;;;;;8.03;5.47;;;25.50;52.50;;;;;;5058759;28;20926;-60
2022/09/05 09:58:09;;;;;;;5.90;5.30;;;25.50;52.40;;;;;;5001159;28;20608;-60
2022/09/05 10:00:50;;;;;;;6.23;5.07;;;25.50;52.20;;;;;;5062730;28;20459;-61
2022/09/05 10:03:44;;;;;;;5.27;4.50;;;25.50;52.10;;;;;;5059666;28;20442;-59
2022/09/05 10:06:54;;;;;;;7.17;5.03;;;25.50;52.30;;;;;;5062421;28;20436;-59
2022/09/05 10:09:38;;;;;;;6.93;4.70;;;25.70;52.00;;;;;;5013698;28;20442;-61
2022/09/05 10:12:31;;;;;;;6.00;5.27;;;25.90;51.60;;;;;;5063232;28;20896;-60
2022/09/05 10:15:02;;;;;;;5.80;5.20;;;26.10;51.10;;;;;;5031062;28;20512;-62
2022/09/05 10:17:51;;;;;;;5.07;4.67;;;26.20;50.70;;;;;;5060933;28;20422;-60
2022/09/05 10:20:48;;;;;;;10.20;5.33;;;26.30;50.60;;;;;;5059114;28;20521;-59
2022/09/05 10:23:36;;;;;;;6.23;5.63;;;26.40;50.50;;;;;;5062822;28;20509;-60
2022/09/05 10:26:36;;;;;;;7.60;5.57;;;26.60;50.10;;;;;;5060218;28;20425;-61
2022/09/05 10:29:10;;;;;;;6.17;5.10;;;26.80;49.80;;;;;;5062139;28;20451;-61
2022/09/05 10:31:55;;;;;;;6.43;5.10;;;27.00;49.40;;;;;;5055929;28;20482;-61
2022/09/05 10:34:24;;;;;;;8.10;5.30;;;27.10;48.90;;;;;;5036657;28;20528;-60
2022/09/05 10:36:56;;;;;;;7.73;5.10;;;27.20;48.70;;;;;;5054744;28;20622;-63
2022/09/05 10:39:28;;;;;;;5.80;5.30;;;27.10;48.60;;;;;;5055126;28;20820;-62
2022/09/05 10:41:59;;;;;;;5.30;4.80;;;27.10;48.70;;;;;;5058876;28;20479;-62
2022/09/05 10:44:37;;;;;;;6.00;5.50;;;27.10;48.60;;;;;;5054170;28;20520;-60
2022/09/05 10:47:17;;;;;;;6.57;5.97;;;27.20;48.50;;;;;;5034686;28;20442;-62
2022/09/05 10:49:48;;;;;;;5.60;5.00;;;27.20;48.20;;;;;;5034511;28;20518;-60
2022/09/05 10:52:22;;;;;;;5.37;4.77;;;27.20;48.10;;;;;;5039650;28;20514;-61
2022/09/05 10:55:10;;;;;;;6.37;5.00;;;27.20;48.00;;;;;;5055106;28;20441;-60
2022/09/05 10:57:43;;;;;;;5.40;4.90;;;27.30;47.90;;;;;;5057607;28;20985;-61
2022/09/05 11:00:37;;;;;;;5.83;5.07;;;27.30;47.60;;;;;;5053740;28;20440;-61
2022/09/05 11:03:06;;;;;;;6.90;5.20;;;27.40;47.60;;;;;;5053766;28;20522;-61
2022/09/05 11:05:38;;;;;;;5.93;5.20;;;27.50;47.40;;;;;;5053814;28;20824;-62
2022/09/05 11:08:10;;;;;;;5.80;5.07;;;27.60;47.20;;;;;;5055969;28;20440;-65
2022/09/05 11:10:45;;;;;;;6.60;5.60;;;27.60;47.00;;;;;;5054365;28;20522;-62
2022/09/05 11:13:22;;;;;;;5.50;4.80;;;27.60;47.00;;;;;;5054684;28;21042;-62
2022/09/05 11:16:05;;;;;;;5.90;5.10;;;27.70;46.90;;;;;;5054669;28;20451;-62
2022/09/05 11:18:51;;;;;;;15.37;4.90;;;27.80;46.60;;;;;;5054137;28;20450;-62
2022/09/05 11:21:24;;;;;;;5.63;4.50;;;27.80;46.40;;;;;;5054720;28;20467;-62
2022/09/05 11:23:55;;;;;;;8.13;4.60;;;27.80;46.20;;;;;;5054952;28;20498;-61
2022/09/05 11:26:35;;;;;;;10.33;5.03;;;27.90;46.20;;;;;;5057845;28;20985;-61
2022/09/05 11:29:06;;;;;;;6.30;5.10;;;27.90;46.00;;;;;;5061615;28;20434;-62
2022/09/05 11:31:59;;;;;;;8.87;4.67;;;28.00;45.90;;;;;;5059866;28;20573;-62
2022/09/05 11:35:00;;;;;;;5.40;4.90;;;28.10;45.70;;;;;;5057453;28;20453;-62
2022/09/05 11:37:46;;;;;;;5.60;4.50;;;28.20;45.70;;;;;;5031799;28;20527;-63
2022/09/05 11:40:34;;;;;;;5.53;5.03;;;28.30;45.40;;;;;;5055289;28;20424;-61
2022/09/05 11:43:32;;;;;;;5.33;4.83;;;28.30;45.10;;;;;;5054509;28;20517;-63
2022/09/05 11:46:21;;;;;;;5.30;4.77;;;28.20;45.20;;;;;;5051000;28;20536;-62
2022/09/05 11:49:22;;;;;;;5.23;4.17;;;28.30;45.20;;;;;;5053571;28;20526;-61
2022/09/05 11:52:39;;;;;;;8.33;5.13;;;28.30;45.10;;;;;;5053574;28;20609;-63
2022/09/05 11:55:34;;;;;;;15.70;5.60;;;28.30;45.10;;;;;;5053126;28;20585;-61
2022/09/05 11:58:28;;;;;;;6.97;5.50;;;28.40;45.00;;;;;;5052853;28;20482;-62
2022/09/05 12:01:08;;;;;;;5.17;4.67;;;28.40;45.00;;;;;;5053062;28;20457;-62
2022/09/05 12:03:51;;;;;;;4.97;4.57;;;28.30;45.00;;;;;;5053038;28;20445;-62
2022/09/05 12:06:56;;;;;;;5.27;4.77;;;28.20;45.10;;;;;;5052821;28;20438;-62
2022/09/05 12:09:37;;;;;;;9.43;5.20;;;28.20;45.20;;;;;;5052913;28;20947;-62
2022/09/05 12:12:23;;;;;;;5.40;4.87;;;28.30;45.10;;;;;;5033043;28;20504;-62
2022/09/05 12:15:17;;;;;;;7.37;4.97;;;28.30;45.10;;;;;;5042024;28;20441;-63
2022/09/05 12:17:57;;;;;;;8.20;5.50;;;28.40;45.10;;;;;;5041289;28;20477;-62
2022/09/05 12:20:31;;;;;;;7.87;4.90;;;28.40;45.10;;;;;;5053223;28;20531;-62
2022/09/05 12:23:06;;;;;;;7.17;5.60;;;28.50;45.10;;;;;;5053515;28;20439;-62
2022/09/05 12:25:49;;;;;;;5.83;5.23;;;28.60;44.90;;;;;;5053810;28;20435;-61
2022/09/05 12:28:24;;;;;;;9.00;5.07;;;28.70;44.90;;;;;;5053600;28;20433;-62
2022/09/05 12:30:53;;;;;;;6.60;4.93;;;28.60;44.80;;;;;;5056544;28;20492;-62
2022/09/05 12:33:27;;;;;;;5.77;4.80;;;28.50;45.10;;;;;;5057956;28;20451;-62
2022/09/05 12:36:02;;;;;;;7.33;4.77;;;28.30;45.20;;;;;;5058194;28;20454;-62
2022/09/05 12:38:38;;;;;;;5.27;4.77;;;28.10;45.40;;;;;;5058762;28;20466;-62
2022/09/05 12:41:09;;;;;;;5.43;5.03;;;28.00;45.60;;;;;;5057510;28;21045;-62
2022/09/05 12:43:46;;;;;;;5.90;5.30;;;27.90;45.80;;;;;;5058941;28;21003;-63
2022/09/05 12:46:22;;;;;;;6.70;5.20;;;28.00;45.80;;;;;;5057429;28;20429;-62
2022/09/05 12:48:55;;;;;;;7.97;4.60;;;28.20;45.70;;;;;;5056772;28;20469;-62
2022/09/05 12:51:27;;;;;;;7.20;5.27;;;28.20;45.50;;;;;;5057482;28;20481;-63
2022/09/05 12:54:01;;;;;;;7.40;5.50;;;28.20;45.40;;;;;;5056779;28;20956;-62
2022/09/05 12:56:35;;;;;;;5.67;4.53;;;28.20;45.40;;;;;;5057758;28;20435;-62
2022/09/05 12:59:05;;;;;;;5.70;5.20;;;28.20;45.50;;;;;;5057260;28;20606;-62
2022/09/05 13:01:35;;;;;;;4.80;4.40;;;28.20;45.50;;;;;;5057514;28;21024;-61
2022/09/05 13:04:06;;;;;;;4.90;4.50;;;28.40;45.20;;;;;;5059411;28;20475;-62
2022/09/05 13:06:38;;;;;;;9.30;4.60;;;28.60;44.90;;;;;;5059625;28;20428;-62
2022/09/05 13:09:10;;;;;;;5.60;4.20;;;28.80;44.40;;;;;;5059331;28;20909;-61
2022/09/05 13:11:46;;;;;;;5.00;4.47;;;28.90;44.10;;;;;;5058989;28;20506;-61
2022/09/05 13:14:21;;;;;;;6.30;4.60;;;29.00;44.00;;;;;;5058591;28;20441;-63
2022/09/05 13:16:50;;;;;;;7.07;5.07;;;29.00;43.80;;;;;;5057721;28;20483;-63
2022/09/05 13:19:31;;;;;;;7.17;4.37;;;29.10;43.90;;;;;;5064877;28;20465;-62
2022/09/05 13:22:00;;;;;;;4.10;3.70;;;29.10;43.80;;;;;;5057072;28;20462;-62
2022/09/05 13:24:33;;;;;;;4.40;4.00;;;29.20;43.70;;;;;;5057122;28;20597;-61
2022/09/05 13:27:12;;;;;;;6.60;4.80;;;29.10;43.50;;;;;;5056611;28;20445;-62
2022/09/05 13:29:50;;;;;;;9.90;4.70;;;29.10;43.50;;;;;;5057808;28;20776;-62
2022/09/05 13:32:28;;;;;;;5.20;4.70;;;29.00;43.50;;;;;;5057110;28;20489;-61
2022/09/05 13:35:03;;;;;;;6.00;5.03;;;29.00;43.60;;;;;;5057376;28;20436;-62
2022/09/05 13:37:35;;;;;;;4.60;3.70;;;28.90;43.40;;;;;;5056937;28;20453;-63
2022/09/05 13:40:10;;;;;;;4.20;3.83;;;29.00;43.30;;;;;;5056893;28;20427;-62
2022/09/05 13:42:43;;;;;;;6.43;4.17;;;29.00;43.20;;;;;;5055330;28;20424;-61
2022/09/05 13:45:17;;;;;;;6.03;3.90;;;29.00;43.30;;;;;;5056395;28;20526;-62
2022/09/05 13:48:15;;;;;;;4.80;4.37;;;29.00;43.30;;;;;;5055913;28;20912;-61
2022/09/05 13:50:53;;;;;;;4.83;3.93;;;29.00;43.20;;;;;;5056283;28;20548;-62
2022/09/05 13:53:30;;;;;;;4.47;3.90;;;29.10;43.00;;;;;;5055864;28;20500;-62
2022/09/05 13:56:13;;;;;;;5.00;4.60;;;29.10;42.90;;;;;;5056792;28;20511;-62
2022/09/05 13:58:44;;;;;;;4.77;3.90;;;29.10;42.90;;;;;;5055775;28;20440;-62
2022/09/05 14:01:51;;;;;;;4.70;4.30;;;29.20;42.70;;;;;;5055585;28;20462;-62